createdAt,value
2019-01-09T00:02:13.884Z,5.50
2019-01-09T00:04:42.377Z,5.50
2019-01-09T00:07:10.913Z,5.50
2019-01-09T00:09:39.504Z,5.40
2019-01-09T00:12:08.001Z,5.40
2019-01-09T00:14:36.516Z,5.40
2019-01-09T00:17:05.000Z,5.30
2019-01-09T00:19:33.544Z,5.30
2019-01-09T00:22:02.069Z,5.30
2019-01-09T00:24:30.521Z,5.20
2019-01-09T00:26:59.032Z,5.20
2019-01-09T00:29:27.564Z,5.20
2019-01-09T00:31:56.095Z,5.20
2019-01-09T00:34:24.570Z,5.20
2019-01-09T00:36:53.155Z,5.20
2019-01-09T00:39:21.740Z,5.10
2019-01-09T00:41:50.224Z,5.10
2019-01-09T00:44:18.721Z,5.10
2019-01-09T00:46:47.276Z,5.10
2019-01-09T00:49:15.820Z,5.10
2019-01-09T00:51:44.292Z,5.20
2019-01-09T00:54:12.829Z,5.10
2019-01-09T00:56:41.440Z,5.10
2019-01-09T00:59:10.047Z,5.10
2019-01-09T01:01:38.576Z,5.10
2019-01-09T01:04:28.395Z,5.20
2019-01-09T01:07:31.742Z,5.20
2019-01-09T01:10:22.330Z,5.10
2019-01-09T01:13:02.434Z,5.10
2019-01-09T01:15:53.668Z,5.20
2019-01-09T01:18:28.055Z,5.10
2019-01-09T01:21:02.293Z,5.10
2019-01-09T01:23:51.096Z,5.10
2019-01-09T01:26:31.292Z,5.10
2019-01-09T01:29:22.422Z,5.10
2019-01-09T01:32:13.620Z,5.00
2019-01-09T01:34:53.767Z,4.90
2019-01-09T01:37:37.096Z,4.90
2019-01-09T01:40:17.608Z,4.90
2019-01-09T01:42:51.907Z,4.90
2019-01-09T01:45:23.428Z,4.90
2019-01-09T01:48:03.325Z,4.90
2019-01-09T01:51:02.346Z,4.90
2019-01-09T01:53:39.448Z,4.90
2019-01-09T01:56:27.334Z,4.90
2019-01-09T01:59:07.634Z,4.90
2019-01-09T02:02:03.117Z,4.90
2019-01-09T02:04:53.892Z,4.90
2019-01-09T02:07:43.637Z,4.80
2019-01-09T02:10:36.076Z,4.90
2019-01-09T02:13:30.200Z,4.80
2019-01-09T02:16:18.146Z,4.80
2019-01-09T02:19:04.839Z,4.80
2019-01-09T02:21:39.133Z,4.70
2019-01-09T02:24:28.771Z,4.70
2019-01-09T02:27:14.832Z,4.80
2019-01-09T02:29:58.394Z,4.70
2019-01-09T02:32:33.329Z,4.70
2019-01-09T02:35:01.811Z,4.70
2019-01-09T02:37:30.565Z,4.80
2019-01-09T02:39:59.064Z,4.70
2019-01-09T02:42:27.852Z,4.70
2019-01-09T02:44:56.304Z,4.70
2019-01-09T02:47:24.805Z,4.60
2019-01-09T02:49:53.263Z,4.60
2019-01-09T02:52:21.721Z,4.60
2019-01-09T02:54:50.277Z,4.50
2019-01-09T02:57:18.771Z,4.50
2019-01-09T02:59:47.298Z,4.40
2019-01-09T03:02:15.849Z,4.50
2019-01-09T03:04:44.307Z,4.50
2019-01-09T03:07:12.801Z,4.50
2019-01-09T03:09:41.295Z,4.50
2019-01-09T03:12:09.816Z,4.60
2019-01-09T03:14:38.273Z,4.50
2019-01-09T03:17:06.909Z,4.40
2019-01-09T03:19:35.513Z,4.40
2019-01-09T03:22:04.028Z,4.40
2019-01-09T03:24:32.529Z,4.40
2019-01-09T03:27:00.980Z,4.40
2019-01-09T03:29:29.516Z,4.40
2019-01-09T03:31:58.024Z,4.40
2019-01-09T03:34:26.552Z,4.40
2019-01-09T03:36:55.023Z,4.40
2019-01-09T03:39:23.568Z,4.30
2019-01-09T03:41:52.022Z,4.30
2019-01-09T03:44:20.481Z,4.40
2019-01-09T03:46:48.961Z,4.40
2019-01-09T03:49:17.419Z,4.30
2019-01-09T03:51:45.888Z,4.30
2019-01-09T03:54:14.439Z,4.30
2019-01-09T03:56:42.893Z,4.30
2019-01-09T03:59:11.389Z,4.30
2019-01-09T04:01:39.845Z,4.30
2019-01-09T04:04:08.295Z,4.30
2019-01-09T04:06:41.788Z,4.30
2019-01-09T04:09:06.965Z,4.30
2019-01-09T04:11:35.424Z,4.30
2019-01-09T04:14:04.045Z,4.30
2019-01-09T04:16:32.577Z,4.40
2019-01-09T04:19:01.029Z,4.40
2019-01-09T04:21:29.509Z,4.40
2019-01-09T04:23:58.025Z,4.40
2019-01-09T04:26:45.876Z,4.40
2019-01-09T04:29:14.336Z,4.40
2019-01-09T04:31:42.865Z,4.40
2019-01-09T04:34:23.980Z,4.30
2019-01-09T04:36:52.499Z,4.30
2019-01-09T04:39:20.963Z,4.30
2019-01-09T04:41:49.525Z,4.30
2019-01-09T04:44:17.984Z,4.30
2019-01-09T04:46:46.437Z,4.30
2019-01-09T04:49:14.989Z,4.30
2019-01-09T04:51:43.449Z,4.30
2019-01-09T04:54:11.925Z,4.30
2019-01-09T04:56:40.405Z,4.20
2019-01-09T04:59:08.902Z,4.20
2019-01-09T05:01:37.423Z,4.20
2019-01-09T05:04:05.904Z,4.20
2019-01-09T05:06:34.357Z,4.20
2019-01-09T05:09:04.048Z,4.20
2019-01-09T05:11:32.540Z,4.20
2019-01-09T05:14:00.992Z,4.20
2019-01-09T05:16:29.520Z,4.20
2019-01-09T05:18:57.988Z,4.10
2019-01-09T05:21:26.476Z,4.10
2019-01-09T05:23:54.928Z,4.10
2019-01-09T05:26:23.498Z,4.10
2019-01-09T05:28:52.053Z,4.10
2019-01-09T05:31:20.527Z,4.00
2019-01-09T05:33:48.975Z,4.00
2019-01-09T05:36:17.535Z,4.00
2019-01-09T05:38:45.989Z,3.90
2019-01-09T05:41:14.444Z,3.90
2019-01-09T05:43:42.937Z,3.90
2019-01-09T05:46:11.457Z,3.90
2019-01-09T05:48:39.912Z,3.90
2019-01-09T05:51:08.388Z,3.90
2019-01-09T05:53:36.843Z,3.90
2019-01-09T05:56:05.389Z,3.90
2019-01-09T05:58:33.912Z,3.90
2019-01-09T06:01:02.367Z,3.80
2019-01-09T06:03:30.824Z,3.80
2019-01-09T06:06:00.848Z,3.80
2019-01-09T06:08:29.300Z,3.80
2019-01-09T06:10:57.752Z,3.80
2019-01-09T06:13:26.240Z,3.80
2019-01-09T06:15:54.801Z,3.80
2019-01-09T06:18:23.256Z,3.80
2019-01-09T06:20:51.717Z,3.80
2019-01-09T06:23:20.171Z,3.80
2019-01-09T06:25:48.632Z,3.80
2019-01-09T06:28:17.112Z,3.80
2019-01-09T06:30:45.617Z,3.80
2019-01-09T06:33:14.165Z,3.80
2019-01-09T06:35:42.626Z,3.80
2019-01-09T06:38:11.127Z,3.90
2019-01-09T06:40:39.585Z,3.90
2019-01-09T06:43:08.062Z,3.90
2019-01-09T06:45:36.517Z,3.80
2019-01-09T06:48:04.976Z,3.80
2019-01-09T06:50:33.471Z,3.80
2019-01-09T06:53:01.988Z,3.80
2019-01-09T06:55:30.498Z,3.90
2019-01-09T06:57:59.033Z,3.90
2019-01-09T07:00:28.395Z,3.90
2019-01-09T07:02:56.995Z,3.90
2019-01-09T07:05:25.524Z,3.90
2019-01-09T07:07:53.989Z,4.00
2019-01-09T07:10:22.468Z,4.00
2019-01-09T07:12:50.958Z,4.00
2019-01-09T07:15:19.412Z,4.00
2019-01-09T07:17:47.884Z,4.00
2019-01-09T07:20:16.357Z,4.00
2019-01-09T07:22:44.808Z,4.00
2019-01-09T07:25:13.377Z,4.00
2019-01-09T07:27:41.925Z,3.90
2019-01-09T07:30:10.448Z,3.90
2019-01-09T07:32:38.920Z,3.90
2019-01-09T07:35:07.444Z,3.90
2019-01-09T07:37:44.660Z,3.90
2019-01-09T07:40:07.289Z,3.90
2019-01-09T07:42:35.744Z,3.90
2019-01-09T07:45:05.040Z,3.90
2019-01-09T07:47:33.540Z,3.90
2019-01-09T07:50:02.023Z,3.90
2019-01-09T07:52:30.555Z,3.90
2019-01-09T07:54:59.049Z,3.90
2019-01-09T07:57:27.540Z,4.00
2019-01-09T07:59:55.990Z,4.00
2019-01-09T08:02:24.472Z,4.00
2019-01-09T08:04:52.952Z,4.00
2019-01-09T08:07:21.442Z,4.10
2019-01-09T08:09:49.922Z,4.10
2019-01-09T08:12:18.402Z,4.10
2019-01-09T08:14:46.863Z,4.10
2019-01-09T08:17:15.347Z,4.10
2019-01-09T08:19:43.819Z,4.20
2019-01-09T08:22:12.332Z,4.20
2019-01-09T08:24:40.834Z,4.30
2019-01-09T08:27:09.281Z,4.30
2019-01-09T08:29:37.812Z,4.30
2019-01-09T08:32:06.429Z,4.40
2019-01-09T08:34:34.876Z,4.50
2019-01-09T08:37:03.357Z,4.50
2019-01-09T08:39:32.409Z,4.50
2019-01-09T08:42:00.930Z,4.50
2019-01-09T08:44:29.430Z,4.50
2019-01-09T08:46:57.900Z,4.50
2019-01-09T08:49:27.896Z,4.50
2019-01-09T08:51:56.377Z,4.40
2019-01-09T08:54:24.825Z,4.50
2019-01-09T08:56:53.328Z,4.60
2019-01-09T08:59:21.839Z,4.60
2019-01-09T09:01:50.314Z,4.60
2019-01-09T09:04:18.755Z,4.60
2019-01-09T09:06:47.224Z,4.60
2019-01-09T09:09:17.313Z,4.60
2019-01-09T09:11:45.779Z,4.60
2019-01-09T09:14:14.259Z,4.60
2019-01-09T09:16:42.722Z,4.70
2019-01-09T09:19:11.252Z,4.70
2019-01-09T09:21:39.805Z,4.70
2019-01-09T09:24:08.265Z,4.70
2019-01-09T09:26:36.717Z,4.80
2019-01-09T09:29:05.198Z,4.90
2019-01-09T09:31:33.673Z,5.00
2019-01-09T09:34:02.129Z,5.00
2019-01-09T09:36:30.616Z,5.10
2019-01-09T09:38:59.073Z,5.30
2019-01-09T09:41:27.620Z,5.40
2019-01-09T09:43:56.077Z,5.50
2019-01-09T09:46:24.531Z,5.80
2019-01-09T09:48:53.594Z,6.00
2019-01-09T09:51:22.108Z,6.50
2019-01-09T09:53:50.595Z,6.60
2019-01-09T09:56:19.076Z,6.90
2019-01-09T09:58:47.537Z,7.10
2019-01-09T10:01:15.997Z,7.60
2019-01-09T10:03:44.471Z,8.00
2019-01-09T10:06:12.919Z,7.80
2019-01-09T10:08:41.392Z,8.00
2019-01-09T10:11:09.949Z,7.80
2019-01-09T10:13:38.473Z,8.00
2019-01-09T10:16:06.978Z,8.00
2019-01-09T10:18:35.486Z,7.80
2019-01-09T10:21:04.280Z,8.20
2019-01-09T10:23:32.744Z,8.10
2019-01-09T10:26:01.224Z,8.40
2019-01-09T10:28:29.697Z,9.20
2019-01-09T10:30:58.146Z,9.60
2019-01-09T10:33:26.622Z,9.40
2019-01-09T10:35:55.086Z,9.70
2019-01-09T10:38:23.728Z,9.70
2019-01-09T10:40:52.241Z,9.70
2019-01-09T10:43:20.735Z,9.60
2019-01-09T10:45:49.362Z,9.30
2019-01-09T10:48:17.823Z,9.70
2019-01-09T10:50:46.285Z,9.40
2019-01-09T10:53:14.856Z,9.10
2019-01-09T10:55:43.394Z,9.70
2019-01-09T10:58:11.929Z,10.10
2019-01-09T11:00:40.514Z,9.60
2019-01-09T11:03:09.025Z,10.10
2019-01-09T11:05:37.475Z,10.40
2019-01-09T11:08:05.960Z,10.50
2019-01-09T11:10:34.413Z,10.00
2019-01-09T11:13:02.884Z,9.90
2019-01-09T11:15:31.408Z,9.30
2019-01-09T11:17:59.857Z,9.60
2019-01-09T11:20:28.396Z,9.60
2019-01-09T11:22:56.987Z,9.70
2019-01-09T11:25:27.174Z,9.70
2019-01-09T11:27:55.768Z,10.20
2019-01-09T11:30:24.256Z,10.50
2019-01-09T11:32:52.858Z,10.30
2019-01-09T11:35:23.649Z,10.00
2019-01-09T11:37:53.164Z,10.50
2019-01-09T11:40:22.382Z,10.60
2019-01-09T11:42:50.984Z,10.40
2019-01-09T11:45:20.400Z,10.90
2019-01-09T11:47:49.404Z,10.30
2019-01-09T11:50:18.414Z,10.10
2019-01-09T11:52:46.957Z,10.70
2019-01-09T11:55:16.301Z,10.70
2019-01-09T11:57:44.936Z,10.90
2019-01-09T12:00:16.586Z,11.30
2019-01-09T12:02:45.047Z,11.00
2019-01-09T12:05:13.704Z,10.60
2019-01-09T12:07:42.284Z,10.80
2019-01-09T12:10:13.952Z,10.60
2019-01-09T12:12:42.446Z,10.70
2019-01-09T12:15:13.067Z,10.20
2019-01-09T12:17:41.589Z,10.80
2019-01-09T12:20:13.566Z,10.60
2019-01-09T12:22:42.603Z,10.20
2019-01-09T12:25:12.194Z,9.80
2019-01-09T12:27:40.751Z,9.60
2019-01-09T12:30:27.053Z,9.30
2019-01-09T12:32:55.549Z,9.20
2019-01-09T12:35:24.150Z,8.90
2019-01-09T12:37:52.741Z,8.70
2019-01-09T12:40:21.425Z,8.60
2019-01-09T12:42:49.947Z,8.70
2019-01-09T12:45:18.584Z,8.60
2019-01-09T12:47:47.179Z,8.70
2019-01-09T12:50:18.762Z,8.60
2019-01-09T12:52:47.228Z,8.60
2019-01-09T12:55:15.803Z,8.50
2019-01-09T12:57:44.359Z,8.70
2019-01-09T13:00:15.965Z,8.60
2019-01-09T13:02:44.455Z,8.30
2019-01-09T13:05:13.052Z,8.20
2019-01-09T13:07:41.504Z,8.20
2019-01-09T13:10:10.940Z,8.30
2019-01-09T13:12:39.427Z,8.30
2019-01-09T13:15:09.846Z,8.30
2019-01-09T13:17:38.315Z,8.20
2019-01-09T13:20:09.856Z,8.20
2019-01-09T13:22:38.337Z,8.00
2019-01-09T13:25:08.657Z,8.00
2019-01-09T13:27:37.112Z,8.00
2019-01-09T13:30:08.875Z,8.00
2019-01-09T13:32:37.371Z,8.00
2019-01-09T13:35:08.016Z,7.90
2019-01-09T13:37:36.541Z,7.80
2019-01-09T13:40:10.789Z,7.90
2019-01-09T13:42:39.305Z,7.80
2019-01-09T13:45:10.692Z,7.90
2019-01-09T13:47:39.360Z,7.80
2019-01-09T13:50:10.829Z,7.80
2019-01-09T13:52:39.280Z,8.00
2019-01-09T13:55:10.396Z,8.10
2019-01-09T13:57:38.989Z,8.00
2019-01-09T14:00:16.097Z,8.00
2019-01-09T14:02:45.089Z,8.00
2019-01-09T14:05:13.790Z,8.00
2019-01-09T14:07:42.277Z,8.00
2019-01-09T14:10:16.412Z,8.10
2019-01-09T14:12:44.965Z,8.20
2019-01-09T14:15:16.560Z,8.30
2019-01-09T14:17:45.952Z,8.30
2019-01-09T14:20:14.577Z,8.30
2019-01-09T14:22:43.134Z,8.20
2019-01-09T14:25:14.024Z,8.00
2019-01-09T14:27:42.544Z,7.90
2019-01-09T14:30:20.284Z,7.80
2019-01-09T14:32:48.956Z,7.60
2019-01-09T14:35:17.409Z,7.60
2019-01-09T14:37:45.895Z,7.60
2019-01-09T14:40:16.873Z,7.70
2019-01-09T14:42:45.348Z,7.60
2019-01-09T14:45:17.736Z,7.50
2019-01-09T14:47:46.265Z,7.40
2019-01-09T14:50:17.479Z,7.30
2019-01-09T14:52:46.160Z,7.30
2019-01-09T14:55:15.269Z,7.20
2019-01-09T14:57:44.153Z,7.20
2019-01-09T15:00:21.428Z,7.20
2019-01-09T15:02:49.928Z,7.10
2019-01-09T15:05:18.556Z,7.00
2019-01-09T15:07:47.131Z,6.90
2019-01-09T15:10:20.912Z,6.90
2019-01-09T15:12:49.902Z,6.90
2019-01-09T15:15:18.824Z,6.90
2019-01-09T15:17:47.399Z,6.80
2019-01-09T15:20:18.385Z,6.80
2019-01-09T15:22:46.850Z,6.80
2019-01-09T15:25:16.950Z,6.70
2019-01-09T15:27:45.446Z,6.60
2019-01-09T15:30:20.085Z,6.60
2019-01-09T15:32:48.699Z,6.60
2019-01-09T15:35:17.288Z,6.60
2019-01-09T15:37:45.754Z,6.50
2019-01-09T15:40:17.341Z,6.50
2019-01-09T15:42:45.932Z,6.40
2019-01-09T15:45:15.082Z,6.40
2019-01-09T15:47:43.636Z,6.30
2019-01-09T15:50:15.237Z,6.30
2019-01-09T15:52:43.754Z,6.30
2019-01-09T15:55:14.657Z,6.30
2019-01-09T15:57:44.243Z,6.20
2019-01-09T16:00:18.858Z,6.20
2019-01-09T16:02:47.349Z,6.20
2019-01-09T16:05:16.584Z,6.20
2019-01-09T16:07:51.949Z,6.20
2019-01-09T16:10:26.925Z,6.20
2019-01-09T16:12:56.023Z,6.20
2019-01-09T16:15:24.569Z,6.20
2019-01-09T16:17:54.247Z,6.20
2019-01-09T16:20:44.621Z,6.20
2019-01-09T16:23:13.130Z,6.20
2019-01-09T16:25:41.712Z,6.20
2019-01-09T16:28:10.165Z,6.20
2019-01-09T16:30:44.701Z,6.10
2019-01-09T16:33:13.251Z,6.20
2019-01-09T16:35:42.055Z,6.20
2019-01-09T16:38:10.608Z,6.00
2019-01-09T16:40:39.076Z,6.10
2019-01-09T16:43:07.563Z,6.10
2019-01-09T16:45:36.072Z,6.10
2019-01-09T16:48:04.874Z,6.10
2019-01-09T16:50:33.477Z,6.00
2019-01-09T16:53:01.954Z,6.00
2019-01-09T16:55:30.497Z,6.00
2019-01-09T16:57:59.189Z,5.90
2019-01-09T17:00:31.012Z,5.90
2019-01-09T17:02:59.625Z,6.00
2019-01-09T17:05:28.604Z,6.00
2019-01-09T17:07:57.300Z,6.00
2019-01-09T17:10:32.210Z,5.90
2019-01-09T17:12:56.612Z,5.80
2019-01-09T17:15:25.112Z,5.70
2019-01-09T17:17:53.641Z,5.80
2019-01-09T17:20:31.170Z,5.80
2019-01-09T17:22:59.788Z,5.70
2019-01-09T17:25:28.428Z,5.70
2019-01-09T17:27:57.068Z,5.70
2019-01-09T17:30:30.622Z,5.70
2019-01-09T17:32:59.214Z,5.60
2019-01-09T17:35:27.819Z,5.70
2019-01-09T17:37:56.376Z,5.60
2019-01-09T17:40:25.402Z,5.60
2019-01-09T17:42:54.108Z,5.60
2019-01-09T17:45:22.693Z,5.50
2019-01-09T17:47:51.244Z,5.50
2019-01-09T17:50:22.809Z,5.60
2019-01-09T17:52:51.394Z,5.50
2019-01-09T17:55:19.925Z,5.60
2019-01-09T17:57:48.380Z,5.50
2019-01-09T18:00:54.040Z,5.50
2019-01-09T18:03:22.680Z,5.40
2019-01-09T18:05:51.231Z,5.40
2019-01-09T18:08:19.694Z,5.30
2019-01-09T18:10:50.354Z,5.30
2019-01-09T18:13:18.454Z,5.30
2019-01-09T18:15:47.055Z,5.30
2019-01-09T18:18:15.662Z,5.30
2019-01-09T18:20:44.147Z,5.20
2019-01-09T18:23:13.131Z,5.30
2019-01-09T18:25:41.646Z,5.20
2019-01-09T18:28:10.179Z,5.30
2019-01-09T18:30:42.047Z,5.20
2019-01-09T18:33:16.389Z,5.30
2019-01-09T18:35:53.832Z,5.30
2019-01-09T18:38:29.069Z,5.30
2019-01-09T18:41:12.757Z,5.20
2019-01-09T18:43:47.361Z,5.20
2019-01-09T18:46:28.383Z,5.20
2019-01-09T18:49:15.208Z,5.10
2019-01-09T18:51:58.945Z,5.10
2019-01-09T18:54:27.572Z,5.10
2019-01-09T18:56:56.476Z,5.00
2019-01-09T18:59:25.007Z,4.90
2019-01-09T19:01:53.481Z,4.90
2019-01-09T19:04:21.948Z,4.90
2019-01-09T19:06:50.480Z,4.90
2019-01-09T19:09:19.251Z,4.80
2019-01-09T19:11:50.716Z,4.80
2019-01-09T19:14:18.173Z,4.80
2019-01-09T19:16:46.759Z,4.80
2019-01-09T19:19:15.294Z,4.70
2019-01-09T19:21:44.008Z,4.70
2019-01-09T19:24:12.580Z,4.70
2019-01-09T19:26:41.128Z,4.80
2019-01-09T19:29:09.589Z,4.70
2019-01-09T19:31:38.221Z,4.70
2019-01-09T19:34:07.424Z,4.70
2019-01-09T19:36:35.876Z,4.70
2019-01-09T19:39:07.668Z,4.70
2019-01-09T19:41:36.126Z,4.70
2019-01-09T19:44:04.965Z,4.70
2019-01-09T19:46:33.447Z,4.60
2019-01-09T19:49:01.915Z,4.60
2019-01-09T19:51:30.594Z,4.60
2019-01-09T19:53:59.148Z,4.60
2019-01-09T19:56:27.947Z,4.60
2019-01-09T19:58:56.479Z,4.60
2019-01-09T20:01:24.962Z,4.50
2019-01-09T20:03:53.417Z,4.50
2019-01-09T20:06:21.886Z,4.60
2019-01-09T20:08:50.357Z,4.50
2019-01-09T20:11:26.197Z,4.40
2019-01-09T20:13:49.121Z,4.40
2019-01-09T20:16:17.824Z,4.40
2019-01-09T20:18:46.369Z,4.40
2019-01-09T20:21:14.939Z,4.60
2019-01-09T20:23:43.511Z,4.60
2019-01-09T20:26:12.304Z,4.50
2019-01-09T20:28:40.849Z,4.40
2019-01-09T20:31:09.713Z,4.30
2019-01-09T20:33:38.258Z,4.30
2019-01-09T20:36:06.964Z,4.20
2019-01-09T20:38:54.823Z,4.20
2019-01-09T20:41:25.476Z,4.20
2019-01-09T20:43:54.215Z,4.30
2019-01-09T20:46:22.876Z,4.20
2019-01-09T20:48:51.339Z,4.20
2019-01-09T20:51:20.057Z,4.20
2019-01-09T20:53:48.657Z,4.10
2019-01-09T20:56:17.230Z,4.20
2019-01-09T20:58:45.746Z,4.20
2019-01-09T21:01:14.620Z,4.10
2019-01-09T21:03:44.884Z,4.20
2019-01-09T21:06:13.705Z,4.20
2019-01-09T21:08:42.250Z,4.20
2019-01-09T21:11:10.823Z,4.20
2019-01-09T21:13:39.480Z,4.20
2019-01-09T21:16:08.100Z,4.20
2019-01-09T21:18:36.692Z,4.20
2019-01-09T21:21:05.971Z,4.20
2019-01-09T21:23:34.552Z,4.20
2019-01-09T21:26:03.001Z,4.20
2019-01-09T21:28:33.090Z,4.20
2019-01-09T21:31:01.563Z,4.20
2019-01-09T21:33:30.878Z,4.20
2019-01-09T21:36:02.043Z,4.20
2019-01-09T21:38:31.889Z,4.20
2019-01-09T21:41:00.414Z,4.20
2019-01-09T21:43:28.921Z,4.20
2019-01-09T21:45:57.536Z,4.20
2019-01-09T21:48:26.065Z,4.20
2019-01-09T21:50:54.625Z,4.20
2019-01-09T21:53:23.081Z,4.20
2019-01-09T21:55:51.549Z,4.20
2019-01-09T21:58:20.097Z,4.20
2019-01-09T22:00:48.613Z,4.10
2019-01-09T22:03:17.081Z,4.10
2019-01-09T22:05:45.880Z,4.20
2019-01-09T22:08:14.712Z,4.10
2019-01-09T22:10:43.269Z,4.10
2019-01-09T22:13:11.829Z,4.10
2019-01-09T22:15:40.351Z,4.10
2019-01-09T22:18:08.862Z,4.10
2019-01-09T22:20:37.468Z,4.10
2019-01-09T22:23:06.001Z,4.00
2019-01-09T22:25:34.532Z,4.00
2019-01-09T22:28:22.564Z,4.00
2019-01-09T22:30:51.116Z,4.00
2019-01-09T22:33:19.564Z,4.00
2019-01-09T22:35:48.120Z,3.90
2019-01-09T22:38:16.656Z,3.90
2019-01-09T22:40:45.185Z,3.90
2019-01-09T22:43:13.880Z,3.90
2019-01-09T22:45:42.364Z,3.90
2019-01-09T22:48:10.821Z,3.90
2019-01-09T22:50:39.312Z,3.80
2019-01-09T22:53:07.831Z,3.80
2019-01-09T22:55:36.344Z,3.80
2019-01-09T22:58:04.884Z,3.70
2019-01-09T23:00:36.819Z,3.70
2019-01-09T23:03:08.905Z,3.70
2019-01-09T23:05:37.832Z,3.70
2019-01-09T23:08:06.416Z,3.80
2019-01-09T23:10:34.992Z,3.70
2019-01-09T23:13:03.596Z,3.80
2019-01-09T23:15:32.245Z,3.80
2019-01-09T23:18:00.799Z,3.70
2019-01-09T23:20:29.948Z,3.70
2019-01-09T23:22:58.636Z,3.60
2019-01-09T23:25:27.181Z,3.50
2019-01-09T23:27:55.656Z,3.50
2019-01-09T23:30:24.191Z,3.50
2019-01-09T23:32:53.160Z,3.50
2019-01-09T23:35:21.986Z,3.50
2019-01-09T23:37:50.473Z,3.50
2019-01-09T23:40:19.690Z,3.40
2019-01-09T23:42:48.300Z,3.30
2019-01-09T23:45:16.916Z,3.30
2019-01-09T23:47:45.368Z,3.30
2019-01-09T23:50:14.378Z,3.30
2019-01-09T23:52:43.065Z,3.30
2019-01-09T23:55:13.165Z,3.30
2019-01-09T23:57:41.747Z,3.30
